Time;durP1;ratioP1;P1;durP2;ratioP2;P2;SDS_P1;SDS_P2;PMS_P1;PMS_P2;Temp;Humidity;BMP_temperature;BMP_pressure;BME280_temperature;BME280_humidity;BME280_pressure;Samples;Min_cycle;Max_cycle;Signal;HPM_P1;HPM_P2
2022/12/25 00:00:41;;;;;;;81.95;21.80;;;5.60;99.90;;;;;;5050608;28;20111;-56
2022/12/25 00:03:08;;;;;;;104.70;23.45;;;5.50;99.90;;;;;;5046348;28;20084;-58
2022/12/25 00:05:37;;;;;;;85.60;24.10;;;5.50;99.90;;;;;;5043974;28;20489;-50
2022/12/25 00:08:04;;;;;;;87.40;23.17;;;5.50;99.90;;;;;;5047080;28;20154;-57
2022/12/25 00:10:31;;;;;;;106.47;23.83;;;5.50;99.90;;;;;;5059125;28;20115;-55
2022/12/25 00:12:58;;;;;;;106.45;25.33;;;5.50;99.90;;;;;;5059404;28;20106;-56
2022/12/25 00:15:25;;;;;;;114.30;24.58;;;5.50;99.90;;;;;;5057190;28;20084;-52
2022/12/25 00:17:53;;;;;;;102.63;25.33;;;5.50;99.90;;;;;;5052614;28;20061;-54
2022/12/25 00:20:20;;;;;;;102.03;25.20;;;5.50;99.90;;;;;;5052558;28;20119;-57
2022/12/25 00:22:46;;;;;;;93.75;23.80;;;5.50;99.90;;;;;;5052082;28;20107;-57
2022/12/25 00:25:13;;;;;;;108.93;24.20;;;5.50;99.90;;;;;;5050916;28;20049;-56
2022/12/25 00:27:40;;;;;;;101.10;24.15;;;5.60;99.90;;;;;;5048870;28;20488;-55
2022/12/25 00:30:08;;;;;;;115.22;24.88;;;5.60;99.90;;;;;;5052814;28;20103;-56
2022/12/25 00:32:36;;;;;;;97.00;24.08;;;5.60;99.90;;;;;;5053233;28;20594;-57
2022/12/25 00:35:04;;;;;;;104.90;26.15;;;5.60;99.90;;;;;;5047627;28;20049;-53
2022/12/25 00:37:31;;;;;;;95.68;25.45;;;5.60;99.90;;;;;;5047720;28;20088;-54
2022/12/25 00:39:58;;;;;;;87.85;24.10;;;5.60;99.90;;;;;;5049591;28;20144;-56
2022/12/25 00:42:25;;;;;;;102.20;23.30;;;5.60;99.90;;;;;;5047291;28;20080;-52
2022/12/25 00:44:52;;;;;;;104.13;25.00;;;5.70;99.90;;;;;;5046813;28;20057;-55
2022/12/25 00:47:19;;;;;;;107.65;25.48;;;5.60;99.90;;;;;;5047636;28;20084;-55
2022/12/25 00:49:46;;;;;;;106.68;25.92;;;5.70;99.90;;;;;;5047365;28;20077;-55
2022/12/25 00:52:14;;;;;;;96.00;24.95;;;5.70;99.90;;;;;;5049572;28;20091;-56
2022/12/25 00:54:41;;;;;;;117.18;26.05;;;5.70;99.90;;;;;;5046665;28;20789;-55
2022/12/25 00:57:07;;;;;;;112.03;26.35;;;5.80;99.90;;;;;;5049620;28;20102;-57
2022/12/25 00:59:34;;;;;;;118.70;26.33;;;5.70;99.90;;;;;;5044979;28;20135;-57
2022/12/25 01:02:22;;;;;;;112.43;24.95;;;5.70;99.90;;;;;;5048443;28;20080;-57
2022/12/25 01:04:49;;;;;;;114.38;26.02;;;5.80;99.90;;;;;;5046574;28;20804;-49
2022/12/25 01:07:17;;;;;;;113.70;25.65;;;5.80;99.90;;;;;;5045747;28;20045;-55
2022/12/25 01:12:28;;;;;;;146.48;28.20;;;5.80;99.90;;;;;;5047711;28;20461;-55
2022/12/25 01:14:55;;;;;;;115.53;26.05;;;5.80;99.90;;;;;;5046656;28;20160;-58
2022/12/25 01:17:22;;;;;;;96.43;25.08;;;5.80;99.90;;;;;;5046977;28;20045;-53
2022/12/25 01:19:49;;;;;;;105.50;26.88;;;5.80;99.90;;;;;;5046404;28;20445;-54
2022/12/25 01:22:17;;;;;;;122.68;27.13;;;5.90;99.90;;;;;;5048007;28;20051;-58
2022/12/25 01:24:44;;;;;;;110.38;26.60;;;5.90;99.90;;;;;;5044719;28;20696;-57
2022/12/25 01:27:11;;;;;;;111.03;25.63;;;5.90;99.90;;;;;;5047466;28;20116;-58
2022/12/25 01:29:38;;;;;;;96.95;24.98;;;5.90;99.90;;;;;;5042849;28;20492;-58
2022/12/25 01:32:05;;;;;;;99.03;24.20;;;5.90;99.90;;;;;;5048633;28;20439;-58
2022/12/25 01:34:32;;;;;;;94.13;25.20;;;5.90;99.90;;;;;;5045696;28;20103;-44
2022/12/25 01:36:59;;;;;;;100.45;24.65;;;6.00;99.90;;;;;;5045977;28;20049;-57
2022/12/25 01:39:27;;;;;;;102.88;25.10;;;6.00;99.90;;;;;;5045733;28;20076;-57
2022/12/25 01:41:56;;;;;;;105.30;26.00;;;6.00;99.90;;;;;;5047823;28;20543;-56
2022/12/25 01:45:00;;;;;;;107.80;25.27;;;6.10;99.90;;;;;;5053372;28;20132;-55
2022/12/25 01:47:26;;;;;;;88.97;24.60;;;6.20;99.90;;;;;;5053983;28;20136;-58
2022/12/25 01:49:53;;;;;;;99.68;25.10;;;6.20;99.90;;;;;;5052986;28;20061;-57
2022/12/25 01:52:21;;;;;;;93.13;23.33;;;6.20;99.90;;;;;;5051005;28;20103;-56
2022/12/25 01:54:51;;;;;;;99.72;23.90;;;6.20;99.90;;;;;;5050070;28;20084;-43
2022/12/25 01:57:19;;;;;;;102.70;24.40;;;6.30;99.90;;;;;;5044652;28;20153;-55
2022/12/25 01:59:46;;;;;;;98.47;23.38;;;6.30;99.90;;;;;;5039383;28;20048;-47
2022/12/25 02:02:13;;;;;;;82.95;23.83;;;6.30;99.90;;;;;;5048502;28;20053;-49
2022/12/25 02:04:41;;;;;;;94.40;22.27;;;6.30;99.90;;;;;;5046113;28;20132;-56
2022/12/25 02:07:09;;;;;;;85.40;23.10;;;6.40;99.90;;;;;;5044682;28;20126;-57
2022/12/25 02:09:37;;;;;;;89.18;21.50;;;6.40;99.90;;;;;;5048659;28;20076;-54
2022/12/25 02:12:05;;;;;;;93.22;21.63;;;6.40;99.90;;;;;;5050281;28;20041;-54
2022/12/25 02:14:34;;;;;;;89.03;22.48;;;6.40;99.90;;;;;;5040790;28;20600;-57
2022/12/25 02:17:05;;;;;;;97.72;22.60;;;6.40;99.90;;;;;;5046985;28;20063;-58
2022/12/25 02:19:40;;;;;;;79.22;20.80;;;6.40;99.90;;;;;;5041879;28;20084;-57
2022/12/25 02:22:09;;;;;;;88.75;21.90;;;6.40;99.90;;;;;;5046422;28;20084;-56
2022/12/25 02:24:42;;;;;;;82.00;21.95;;;6.50;99.90;;;;;;5041680;28;20175;-56
2022/12/25 02:27:16;;;;;;;99.00;22.73;;;6.50;99.90;;;;;;5046410;28;20053;-58
2022/12/25 02:29:48;;;;;;;86.57;21.98;;;6.60;99.90;;;;;;5044535;28;20500;-57
2022/12/25 02:32:17;;;;;;;86.53;21.17;;;6.60;99.90;;;;;;5044754;28;20069;-58
2022/12/25 02:34:45;;;;;;;92.88;22.05;;;6.60;99.90;;;;;;5044829;28;20084;-55
2022/12/25 02:37:14;;;;;;;89.03;22.42;;;6.60;99.90;;;;;;5044622;28;20401;-57
2022/12/25 02:39:56;;;;;;;110.65;22.65;;;6.70;99.90;;;;;;5042488;28;21189;-50
2022/12/25 03:07:37;;;;;;;97.90;20.50;;;7.00;99.90;;;;;;5051852;28;20053;-57
2022/12/25 03:12:51;;;;;;;77.63;22.02;;;7.00;99.90;;;;;;5050110;28;20064;-56
2022/12/25 03:18:07;;;;;;;76.28;20.70;;;7.10;99.90;;;;;;5048416;28;20126;-59
2022/12/25 03:28:49;;;;;;;77.47;20.52;;;7.20;99.90;;;;;;5049852;28;20049;-54
2022/12/25 03:31:18;;;;;;;90.05;20.85;;;7.20;99.90;;;;;;5048772;28;20076;-56
2022/12/25 03:36:51;;;;;;;;;;;7.20;99.90;;;;;;5048594;28;20050;-54
2022/12/25 04:37:13;;;;;;;93.03;26.48;;;7.70;99.90;;;;;;5046173;28;20047;-60
2022/12/25 04:39:41;;;;;;;95.28;25.45;;;7.70;99.90;;;;;;5046681;28;20080;-61
2022/12/25 04:42:08;;;;;;;96.75;25.45;;;7.80;99.90;;;;;;5048405;28;20149;-58
2022/12/25 04:44:34;;;;;;;86.25;24.50;;;7.80;99.90;;;;;;5047093;28;20102;-46
2022/12/25 04:47:01;;;;;;;83.40;25.08;;;7.80;99.90;;;;;;5046800;28;20138;-60
2022/12/25 04:49:28;;;;;;;98.80;26.80;;;7.80;99.90;;;;;;5049191;28;20045;-59
2022/12/25 04:51:55;;;;;;;104.25;27.90;;;7.90;99.90;;;;;;5049301;28;20468;-59
2022/12/25 04:54:22;;;;;;;103.07;27.13;;;7.90;99.90;;;;;;5046471;28;20137;-60
2022/12/25 04:56:50;;;;;;;99.53;27.70;;;7.90;99.90;;;;;;5048763;28;20084;-59
2022/12/25 04:59:16;;;;;;;120.53;28.60;;;7.90;99.90;;;;;;5046142;28;20124;-59
2022/12/25 05:01:43;;;;;;;110.82;28.42;;;7.90;99.90;;;;;;5048533;28;20044;-59
2022/12/25 05:04:10;;;;;;;106.03;26.70;;;7.90;99.90;;;;;;5043555;28;20065;-54
2022/12/25 05:06:37;;;;;;;111.65;28.65;;;7.90;99.90;;;;;;5048836;28;20136;-60
2022/12/25 05:09:04;;;;;;;109.40;27.75;;;7.90;99.90;;;;;;5048030;28;20378;-61
2022/12/25 05:11:34;;;;;;;106.43;29.10;;;7.90;99.90;;;;;;5048859;28;20098;-57
2022/12/25 05:14:02;;;;;;;125.53;28.98;;;8.00;99.90;;;;;;5048379;28;20040;-59
2022/12/25 05:16:29;;;;;;;123.32;30.33;;;8.00;99.90;;;;;;5046875;28;20465;-57
2022/12/25 05:18:56;;;;;;;116.07;29.92;;;8.00;99.90;;;;;;5047377;28;20077;-61
2022/12/25 05:21:23;;;;;;;112.22;29.10;;;8.00;99.90;;;;;;5047202;28;20056;-54
2022/12/25 05:23:50;;;;;;;119.88;29.88;;;8.00;99.90;;;;;;5044160;28;20060;-62
2022/12/25 05:26:18;;;;;;;95.60;28.23;;;8.00;99.90;;;;;;5049079;28;20143;-57
2022/12/25 05:28:45;;;;;;;106.60;30.02;;;8.00;99.90;;;;;;5047107;28;20060;-61
2022/12/25 05:31:13;;;;;;;114.25;29.55;;;8.00;99.90;;;;;;5045983;28;20099;-58
2022/12/25 05:33:40;;;;;;;108.68;29.98;;;8.10;99.90;;;;;;5047568;28;20115;-61
2022/12/25 05:36:08;;;;;;;105.43;28.92;;;8.10;99.90;;;;;;5045846;28;20136;-58
2022/12/25 05:38:35;;;;;;;100.88;28.92;;;8.10;99.90;;;;;;5043813;28;20172;-52
2022/12/25 05:41:02;;;;;;;95.72;28.75;;;8.20;99.90;;;;;;5050018;28;20472;-62
2022/12/25 05:43:29;;;;;;;105.43;30.35;;;8.10;99.90;;;;;;5051492;28;20110;-63
2022/12/25 05:45:55;;;;;;;113.00;29.75;;;8.20;99.90;;;;;;5045925;28;20087;-60
2022/12/25 05:48:24;;;;;;;109.22;32.05;;;8.20;99.90;;;;;;5046198;28;20469;-53
2022/12/25 05:50:50;;;;;;;104.10;29.92;;;8.20;99.90;;;;;;5046091;28;20114;-59
2022/12/25 05:53:17;;;;;;;96.95;29.70;;;8.20;99.90;;;;;;5047736;28;20519;-62
2022/12/25 05:55:44;;;;;;;97.88;30.48;;;8.20;99.90;;;;;;5046142;28;20041;-60
2022/12/25 05:58:11;;;;;;;99.00;30.85;;;8.20;99.90;;;;;;5045823;28;20060;-53
2022/12/25 06:00:38;;;;;;;98.68;29.23;;;8.20;99.90;;;;;;5043697;28;20087;-57
2022/12/25 06:03:05;;;;;;;100.95;30.95;;;8.30;99.90;;;;;;5049172;28;20092;-61
2022/12/25 06:05:33;;;;;;;115.22;31.67;;;8.30;99.90;;;;;;5047279;28;20136;-62
2022/12/25 06:08:00;;;;;;;98.32;31.85;;;8.30;99.90;;;;;;5045281;28;20072;-58
2022/12/25 06:10:26;;;;;;;112.55;33.25;;;8.40;99.90;;;;;;5042566;28;20513;-62
2022/12/25 06:12:54;;;;;;;97.38;29.77;;;8.30;99.90;;;;;;5047458;28;20045;-60
2022/12/25 06:15:21;;;;;;;107.03;32.00;;;8.30;99.90;;;;;;5044511;28;20179;-49
2022/12/25 06:17:47;;;;;;;115.63;31.73;;;8.30;99.90;;;;;;5048669;28;20123;-61
2022/12/25 06:20:14;;;;;;;93.75;30.77;;;8.40;99.90;;;;;;5044448;28;20298;-62
2022/12/25 06:22:42;;;;;;;84.40;29.63;;;8.40;99.90;;;;;;5044508;28;20453;-60
2022/12/25 06:25:09;;;;;;;89.15;29.90;;;8.40;99.90;;;;;;5046269;28;20061;-52
2022/12/25 06:27:36;;;;;;;99.80;30.67;;;8.40;99.90;;;;;;5043344;28;20052;-60
2022/12/25 06:30:03;;;;;;;86.45;29.20;;;8.50;99.90;;;;;;5047137;28;20076;-56
2022/12/25 06:32:30;;;;;;;84.88;29.25;;;8.40;99.90;;;;;;5045151;28;20048;-61
2022/12/25 06:34:57;;;;;;;73.07;27.75;;;8.40;99.90;;;;;;5044385;28;20140;-52
2022/12/25 06:37:24;;;;;;;96.65;31.65;;;8.40;99.90;;;;;;5043598;28;20132;-57
2022/12/25 06:39:52;;;;;;;92.70;29.02;;;8.40;99.90;;;;;;5045008;28;20158;-61
2022/12/25 06:42:19;;;;;;;87.05;28.75;;;8.40;99.90;;;;;;5044232;28;20049;-59
2022/12/25 06:44:46;;;;;;;92.70;29.25;;;8.50;99.90;;;;;;5049040;28;20144;-57
2022/12/25 06:47:12;;;;;;;69.15;26.75;;;8.50;99.90;;;;;;5045920;28;20049;-58
2022/12/25 06:49:39;;;;;;;71.85;26.67;;;8.50;99.90;;;;;;5047036;28;20110;-60
2022/12/25 06:52:06;;;;;;;77.05;27.58;;;8.50;99.90;;;;;;5045880;28;20386;-60
2022/12/25 06:54:33;;;;;;;74.97;26.58;;;8.50;99.90;;;;;;5054378;28;20130;-60
2022/12/25 06:57:01;;;;;;;70.20;26.80;;;8.50;99.90;;;;;;5044204;28;20139;-60
2022/12/25 06:59:28;;;;;;;72.07;26.67;;;8.50;99.90;;;;;;5044911;28;20080;-62
2022/12/25 07:01:55;;;;;;;71.57;25.33;;;8.50;99.90;;;;;;5044394;28;20182;-60
2022/12/25 07:04:25;;;;;;;69.72;26.10;;;8.50;99.90;;;;;;5050213;28;20052;-60
2022/12/25 07:06:52;;;;;;;67.68;26.60;;;8.50;99.90;;;;;;5045532;28;20065;-58
2022/12/25 07:09:18;;;;;;;78.00;25.95;;;8.50;99.90;;;;;;5042883;28;20168;-59
2022/12/25 07:11:45;;;;;;;63.33;24.77;;;8.50;99.90;;;;;;5042891;28;20129;-56
2022/12/25 07:14:17;;;;;;;58.63;24.58;;;8.50;99.90;;;;;;5044105;28;20127;-61
2022/12/25 07:16:44;;;;;;;66.78;23.83;;;8.50;99.90;;;;;;5042864;28;20064;-59
2022/12/25 07:19:10;;;;;;;66.97;23.63;;;8.40;99.90;;;;;;5044620;28;20562;-55
2022/12/25 07:21:37;;;;;;;65.95;24.27;;;8.50;99.90;;;;;;5043235;28;20080;-56
2022/12/25 07:24:04;;;;;;;61.50;24.00;;;8.50;99.90;;;;;;5047181;28;20084;-62
2022/12/25 07:26:31;;;;;;;72.22;24.23;;;8.50;99.90;;;;;;5046695;28;20073;-56
2022/12/25 07:28:58;;;;;;;57.47;23.67;;;8.50;99.90;;;;;;5047331;28;20562;-52
2022/12/25 07:31:26;;;;;;;55.30;22.70;;;8.50;99.90;;;;;;5049954;28;20049;-57
2022/12/25 07:33:53;;;;;;;62.35;23.08;;;8.50;99.90;;;;;;5047748;28;20128;-59
2022/12/25 07:36:20;;;;;;;61.08;22.45;;;8.50;99.90;;;;;;5050239;28;20076;-60
2022/12/25 07:38:48;;;;;;;66.15;22.27;;;8.50;99.90;;;;;;5040507;28;20119;-56
2022/12/25 07:41:15;;;;;;;52.10;21.13;;;8.50;99.90;;;;;;5049726;28;20393;-61
2022/12/25 07:43:42;;;;;;;60.50;20.90;;;8.50;99.90;;;;;;5065293;28;20053;-60
2022/12/25 07:46:08;;;;;;;53.78;19.83;;;8.50;99.90;;;;;;5049898;28;20052;-54
2022/12/25 07:48:36;;;;;;;53.03;19.95;;;8.50;99.90;;;;;;5045705;28;20140;-57
2022/12/25 07:51:05;;;;;;;46.75;20.25;;;8.50;99.90;;;;;;5044094;28;20076;-46
2022/12/25 07:53:32;;;;;;;51.08;19.48;;;8.50;99.90;;;;;;5049784;28;20053;-59
2022/12/25 07:55:59;;;;;;;44.55;19.10;;;8.50;99.90;;;;;;5045115;28;20455;-56
2022/12/25 07:58:26;;;;;;;43.83;18.17;;;8.50;99.90;;;;;;5046504;28;20139;-59
2022/12/25 08:00:53;;;;;;;40.95;17.33;;;8.50;99.90;;;;;;5047297;28;20049;-60
2022/12/25 08:03:19;;;;;;;46.30;16.70;;;8.50;99.90;;;;;;5046066;28;20049;-61
2022/12/25 08:05:48;;;;;;;44.33;17.20;;;8.50;99.90;;;;;;5043810;28;20562;-51
2022/12/25 08:08:14;;;;;;;38.40;16.75;;;8.60;99.90;;;;;;5043340;28;20049;-60
2022/12/25 08:10:47;;;;;;;39.95;15.90;;;8.60;99.90;;;;;;5046084;28;20045;-56
2022/12/25 08:13:14;;;;;;;43.78;16.88;;;8.60;99.90;;;;;;5043149;28;20137;-56
2022/12/25 08:15:44;;;;;;;42.22;16.88;;;8.60;99.90;;;;;;5044834;28;20129;-52
2022/12/25 08:18:10;;;;;;;42.05;16.23;;;8.60;99.90;;;;;;5047041;28;20053;-58
2022/12/25 08:20:37;;;;;;;40.40;16.73;;;8.60;99.90;;;;;;5042452;28;20148;-52
2022/12/25 08:23:05;;;;;;;33.35;14.68;;;8.60;99.90;;;;;;5044284;28;20122;-59
2022/12/25 08:25:32;;;;;;;35.42;16.10;;;8.60;99.90;;;;;;5050566;28;20087;-61
2022/12/25 08:28:00;;;;;;;35.22;15.80;;;8.60;99.90;;;;;;5046847;28;20045;-58
2022/12/25 08:30:26;;;;;;;39.97;15.65;;;8.60;99.90;;;;;;5044113;28;20041;-58
2022/12/25 08:32:53;;;;;;;37.35;15.73;;;8.60;99.90;;;;;;5044945;28;20481;-61
2022/12/25 08:35:20;;;;;;;38.95;14.60;;;8.60;99.90;;;;;;5047519;28;20072;-57
2022/12/25 08:37:47;;;;;;;36.45;14.90;;;8.60;99.90;;;;;;5045872;28;20092;-57
2022/12/25 08:40:15;;;;;;;35.72;14.32;;;8.60;99.90;;;;;;5047302;28;20132;-55
2022/12/25 08:42:42;;;;;;;34.85;15.52;;;8.60;99.90;;;;;;5047949;28;20080;-62
2022/12/25 08:45:10;;;;;;;35.88;13.98;;;8.60;99.90;;;;;;5047621;28;20037;-62
2022/12/25 08:47:37;;;;;;;37.40;13.30;;;8.50;99.90;;;;;;5048081;28;20099;-61
2022/12/25 08:50:04;;;;;;;31.77;13.18;;;8.50;99.90;;;;;;5049354;28;20053;-54
2022/12/25 08:52:31;;;;;;;35.03;14.23;;;8.50;99.90;;;;;;5045249;28;20130;-62
2022/12/25 08:54:58;;;;;;;27.52;12.05;;;8.50;99.90;;;;;;5043650;28;20049;-64
2022/12/25 08:57:26;;;;;;;28.65;12.82;;;8.60;99.90;;;;;;5048674;28;20088;-60
2022/12/25 08:59:53;;;;;;;30.77;12.50;;;8.50;99.90;;;;;;5051327;28;20088;-54
2022/12/25 09:02:19;;;;;;;37.03;14.07;;;8.50;99.90;;;;;;5051768;28;20048;-59
2022/12/25 09:04:46;;;;;;;33.00;13.50;;;8.50;99.90;;;;;;5053079;28;20091;-60
2022/12/25 09:07:13;;;;;;;35.17;15.18;;;8.50;99.90;;;;;;5048617;28;20045;-59
2022/12/25 09:09:40;;;;;;;36.33;13.30;;;8.50;99.90;;;;;;5050380;28;20095;-59
2022/12/25 09:12:07;;;;;;;39.10;13.82;;;8.50;99.90;;;;;;5050282;28;20063;-61
2022/12/25 09:14:36;;;;;;;35.95;14.05;;;8.50;99.90;;;;;;5049337;28;20394;-61
2022/12/25 09:17:02;;;;;;;34.85;15.75;;;8.50;99.90;;;;;;5052072;28;20088;-60
2022/12/25 09:19:29;;;;;;;44.33;21.40;;;8.50;99.90;;;;;;5047319;28;20134;-50
2022/12/25 09:21:56;;;;;;;50.03;24.42;;;8.60;99.90;;;;;;5048441;28;20085;-58
2022/12/25 09:24:23;;;;;;;45.72;24.10;;;8.60;99.90;;;;;;5051463;28;20049;-60
2022/12/25 09:26:50;;;;;;;60.83;29.52;;;8.60;99.90;;;;;;5051499;28;20162;-47
2022/12/25 09:29:16;;;;;;;65.50;27.92;;;8.60;99.90;;;;;;5051541;28;20543;-61
2022/12/25 09:31:45;;;;;;;42.22;20.05;;;8.60;99.90;;;;;;5049333;28;20084;-60
2022/12/25 09:34:11;;;;;;;39.85;17.17;;;8.60;99.90;;;;;;5045931;28;20571;-62
2022/12/25 09:36:38;;;;;;;47.60;20.33;;;8.60;99.90;;;;;;5048755;28;20080;-61
2022/12/25 09:39:05;;;;;;;26.70;13.32;;;8.60;99.90;;;;;;5048987;28;20093;-59
2022/12/25 09:41:33;;;;;;;27.52;12.60;;;8.60;99.90;;;;;;5045582;28;20854;-63
2022/12/25 09:44:02;;;;;;;41.08;19.27;;;8.70;99.90;;;;;;5048707;28;20053;-63
2022/12/25 09:46:28;;;;;;;25.83;11.40;;;8.70;99.90;;;;;;5051384;28;20045;-60
2022/12/25 09:49:01;;;;;;;29.35;12.02;;;8.70;99.90;;;;;;5040647;28;20147;-59
2022/12/25 09:51:28;;;;;;;27.50;12.13;;;8.70;99.90;;;;;;5044711;28;20071;-61
2022/12/25 09:54:00;;;;;;;31.83;11.73;;;8.70;99.90;;;;;;5049106;28;20076;-60
2022/12/25 09:56:27;;;;;;;28.38;11.95;;;8.80;99.90;;;;;;5049760;28;20122;-62
2022/12/25 09:58:54;;;;;;;30.95;12.00;;;8.70;99.90;;;;;;5048889;28;20077;-61
2022/12/25 10:01:24;;;;;;;31.38;14.52;;;8.70;99.90;;;;;;5048464;28;20053;-59
2022/12/25 10:04:01;;;;;;;29.05;13.60;;;8.80;99.90;;;;;;5044205;28;20057;-61
2022/12/25 10:06:30;;;;;;;27.30;11.90;;;8.80;99.90;;;;;;5043946;28;20452;-63
2022/12/25 10:09:11;;;;;;;33.60;16.42;;;8.80;99.90;;;;;;5045918;28;20454;-59
2022/12/25 10:11:50;;;;;;;34.00;18.33;;;8.80;99.90;;;;;;5050748;28;20099;-60
2022/12/25 10:14:22;;;;;;;35.22;15.40;;;8.80;99.90;;;;;;5046893;28;20141;-62
2022/12/25 10:16:53;;;;;;;24.17;12.73;;;8.80;99.90;;;;;;5048119;28;20124;-62
2022/12/25 10:19:30;;;;;;;30.00;16.58;;;8.80;99.90;;;;;;5045846;28;20080;-57
2022/12/25 10:21:58;;;;;;;32.42;16.55;;;8.90;99.90;;;;;;5050963;28;20080;-56
2022/12/25 10:24:31;;;;;;;34.05;15.65;;;8.90;99.90;;;;;;5049530;28;20049;-61
2022/12/25 10:26:58;;;;;;;35.10;17.95;;;8.90;99.90;;;;;;5048812;28;20045;-60
2022/12/25 10:29:34;;;;;;;34.78;16.48;;;8.90;99.90;;;;;;5052558;28;20119;-62
2022/12/25 10:32:01;;;;;;;32.47;15.57;;;8.90;99.90;;;;;;5049850;28;20107;-63
2022/12/25 10:34:30;;;;;;;28.27;14.95;;;8.90;99.90;;;;;;5045381;28;20052;-60
2022/12/25 10:36:56;;;;;;;26.77;13.85;;;9.00;99.90;;;;;;5036521;28;20036;-59
2022/12/25 10:39:24;;;;;;;27.05;12.55;;;9.00;99.90;;;;;;5051110;28;20060;-62
2022/12/25 10:42:28;;;;;;;25.35;11.68;;;9.00;99.90;;;;;;5048470;28;20045;-64
2022/12/25 10:44:56;;;;;;;19.83;10.98;;;9.00;99.90;;;;;;5047123;28;20057;-61
2022/12/25 10:47:24;;;;;;;22.92;11.10;;;9.00;99.90;;;;;;5048964;28;20060;-57
2022/12/25 10:49:52;;;;;;;21.38;10.82;;;9.10;99.90;;;;;;5049963;28;20087;-63
2022/12/25 10:52:20;;;;;;;26.40;10.98;;;9.10;99.90;;;;;;5047561;28;20056;-59
2022/12/25 10:54:47;;;;;;;22.60;10.93;;;9.10;99.90;;;;;;5048317;28;20135;-60
2022/12/25 10:57:16;;;;;;;18.73;10.55;;;9.10;99.90;;;;;;5052466;28;20132;-56
2022/12/25 10:59:44;;;;;;;21.02;10.57;;;9.10;99.90;;;;;;5047454;28;20499;-59
2022/12/25 11:02:14;;;;;;;23.15;10.35;;;9.20;99.90;;;;;;5046420;28;20087;-54
2022/12/25 11:04:41;;;;;;;23.50;11.25;;;9.20;99.90;;;;;;5051378;28;20401;-59
2022/12/25 11:07:15;;;;;;;23.23;10.82;;;9.20;99.90;;;;;;5054363;28;20049;-64
2022/12/25 11:09:49;;;;;;;24.20;10.48;;;9.20;99.90;;;;;;5053423;28;20698;-59
2022/12/25 11:12:17;;;;;;;29.00;11.15;;;9.20;99.90;;;;;;5051799;28;20081;-64
2022/12/25 11:14:53;;;;;;;23.15;10.50;;;9.20;99.90;;;;;;5053159;28;20072;-55
2022/12/25 11:17:21;;;;;;;20.05;9.55;;;9.20;99.90;;;;;;5054528;28;20081;-67
2022/12/25 11:19:52;;;;;;;21.90;11.38;;;9.20;99.90;;;;;;5049991;28;20056;-65
2022/12/25 11:22:20;;;;;;;20.63;10.05;;;9.20;99.90;;;;;;5054446;28;20081;-67
2022/12/25 11:24:47;;;;;;;19.85;10.68;;;9.20;99.90;;;;;;5054304;28;20088;-55
2022/12/25 11:27:21;;;;;;;32.45;19.60;;;9.20;99.90;;;;;;5051546;28;20056;-62
2022/12/25 11:29:49;;;;;;;23.50;11.23;;;9.30;99.90;;;;;;5053201;28;20083;-60
2022/12/25 11:32:16;;;;;;;27.55;11.43;;;9.30;99.90;;;;;;5049316;28;20057;-62
2022/12/25 11:34:45;;;;;;;26.50;11.02;;;9.40;99.90;;;;;;5047258;28;20053;-60
2022/12/25 11:37:14;;;;;;;24.67;11.20;;;9.40;99.90;;;;;;5051936;28;20461;-62
2022/12/25 11:39:42;;;;;;;28.75;12.23;;;9.40;99.90;;;;;;5049523;28;20449;-61
2022/12/25 11:42:13;;;;;;;27.95;10.98;;;9.40;99.90;;;;;;5049408;28;20136;-62
2022/12/25 11:44:43;;;;;;;31.48;11.73;;;9.40;99.90;;;;;;5048909;28;21123;-52
2022/12/25 11:47:15;;;;;;;27.02;11.68;;;9.40;99.90;;;;;;5046104;28;20049;-51
2022/12/25 11:49:45;;;;;;;23.65;11.32;;;9.50;99.90;;;;;;5050250;28;20071;-63
2022/12/25 11:52:11;;;;;;;20.95;11.85;;;9.50;99.90;;;;;;5047979;28;20092;-62
2022/12/25 11:54:40;;;;;;;18.40;9.45;;;9.60;99.90;;;;;;5049045;28;20076;-50
2022/12/25 11:57:09;;;;;;;22.70;10.57;;;9.50;99.90;;;;;;5050597;28;20073;-64
2022/12/25 11:59:37;;;;;;;22.92;10.25;;;9.50;99.90;;;;;;5048566;28;20048;-48
2022/12/25 12:02:11;;;;;;;24.00;10.25;;;9.50;99.90;;;;;;5048199;28;20451;-66
2022/12/25 12:04:42;;;;;;;19.08;9.98;;;9.50;99.90;;;;;;5048935;28;20064;-58
2022/12/25 12:07:16;;;;;;;23.98;11.35;;;9.50;99.90;;;;;;5050258;28;20148;-64
2022/12/25 12:09:46;;;;;;;22.80;11.77;;;9.50;99.90;;;;;;5048446;28;20080;-63
2022/12/25 12:12:16;;;;;;;25.00;10.23;;;9.60;99.90;;;;;;5055337;28;20049;-61
2022/12/25 12:14:47;;;;;;;23.83;10.35;;;9.50;99.90;;;;;;5054687;28;20459;-64
2022/12/25 12:17:15;;;;;;;22.50;10.80;;;9.60;99.90;;;;;;5051976;28;20091;-62
2022/12/25 12:19:42;;;;;;;27.75;11.77;;;9.60;99.90;;;;;;5045337;28;20132;-64
2022/12/25 12:22:16;;;;;;;27.80;13.35;;;9.60;99.90;;;;;;5049798;28;20060;-63
2022/12/25 12:24:43;;;;;;;28.25;12.35;;;9.60;99.90;;;;;;5049334;28;20046;-59
2022/12/25 12:27:19;;;;;;;30.67;12.07;;;9.50;99.90;;;;;;5050484;28;20401;-62
2022/12/25 12:29:48;;;;;;;28.02;11.90;;;9.50;99.90;;;;;;5048781;28;20076;-62
2022/12/25 12:32:27;;;;;;;24.65;12.05;;;9.60;99.90;;;;;;5057905;28;20412;-61
2022/12/25 12:34:54;;;;;;;27.20;13.75;;;9.60;99.90;;;;;;5055218;28;20084;-56
2022/12/25 12:37:28;;;;;;;23.52;13.02;;;9.60;99.90;;;;;;5050884;28;20107;-59
2022/12/25 12:39:54;;;;;;;23.08;12.48;;;9.60;99.90;;;;;;5047408;28;20049;-55
2022/12/25 12:42:25;;;;;;;28.95;13.35;;;9.60;99.90;;;;;;5047557;28;20378;-58
2022/12/25 12:44:52;;;;;;;26.10;13.98;;;9.60;99.90;;;;;;5049003;28;20063;-63
2022/12/25 12:47:29;;;;;;;28.98;12.82;;;9.60;99.90;;;;;;5055031;28;20088;-65
2022/12/25 12:49:57;;;;;;;20.38;11.52;;;9.60;99.90;;;;;;5047024;28;20088;-60
2022/12/25 12:52:25;;;;;;;29.95;14.95;;;9.60;99.90;;;;;;5044954;28;20057;-55
2022/12/25 12:54:56;;;;;;;30.75;13.77;;;9.60;99.90;;;;;;5048946;28;20076;-54
2022/12/25 12:57:25;;;;;;;27.33;13.13;;;9.60;99.90;;;;;;5049191;28;20092;-58
2022/12/25 12:59:52;;;;;;;23.13;13.63;;;9.60;99.90;;;;;;5046801;28;20064;-53
2022/12/25 13:02:31;;;;;;;26.20;15.73;;;9.60;99.90;;;;;;5051628;28;20068;-48
2022/12/25 13:05:01;;;;;;;31.08;13.75;;;9.60;99.90;;;;;;5044676;28;20061;-58
2022/12/25 13:07:42;;;;;;;30.90;16.75;;;9.60;99.90;;;;;;5043632;28;20116;-60
2022/12/25 13:10:22;;;;;;;29.90;13.55;;;9.60;99.90;;;;;;5041995;28;20428;-60
2022/12/25 13:12:56;;;;;;;27.40;12.50;;;9.60;99.90;;;;;;5045857;28;20061;-57
2022/12/25 13:15:24;;;;;;;25.63;12.45;;;9.60;99.90;;;;;;5045444;28;20073;-56
2022/12/25 13:17:51;;;;;;;30.75;12.52;;;9.60;99.90;;;;;;5045132;28;20456;-60
2022/12/25 13:20:22;;;;;;;24.90;13.32;;;9.60;99.90;;;;;;5039671;28;20123;-58
2022/12/25 13:22:49;;;;;;;28.42;13.13;;;9.60;99.90;;;;;;5040215;28;20065;-57
2022/12/25 13:25:18;;;;;;;26.20;12.98;;;9.60;99.90;;;;;;5044727;28;20061;-57
2022/12/25 13:27:45;;;;;;;27.80;12.02;;;9.60;99.90;;;;;;5042290;28;20057;-53
2022/12/25 13:30:17;;;;;;;27.27;12.32;;;9.60;99.90;;;;;;5042819;28;20084;-53
2022/12/25 13:32:44;;;;;;;;;;;9.60;99.90;;;;;;5042180;28;20159;-58
2022/12/25 13:35:12;;;;;;;31.48;13.63;;;9.50;99.90;;;;;;5047350;28;19925;-58
2022/12/25 13:37:39;;;;;;;28.88;12.88;;;9.50;99.90;;;;;;5042408;28;20077;-58
2022/12/25 13:40:07;;;;;;;27.02;12.18;;;9.50;99.90;;;;;;5050957;28;20139;-57
2022/12/25 13:42:35;;;;;;;31.25;14.52;;;9.50;99.90;;;;;;5044962;28;20136;-59
2022/12/25 13:45:04;;;;;;;30.27;14.30;;;9.50;99.90;;;;;;5045624;28;20053;-49
2022/12/25 13:47:33;;;;;;;27.05;13.70;;;9.50;99.90;;;;;;5045540;28;20505;-57
2022/12/25 13:50:12;;;;;;;28.42;14.35;;;9.50;99.90;;;;;;5048697;28;20478;-54
2022/12/25 13:52:39;;;;;;;28.85;14.13;;;9.50;99.90;;;;;;5051910;28;20052;-58
2022/12/25 13:55:11;;;;;;;27.23;15.35;;;9.50;99.90;;;;;;5051980;28;20060;-56
2022/12/25 13:57:39;;;;;;;31.02;15.27;;;9.50;99.90;;;;;;5049755;28;20083;-58
2022/12/25 14:00:07;;;;;;;30.23;16.13;;;9.40;99.90;;;;;;5052290;28;20484;-58
2022/12/25 14:02:36;;;;;;;28.48;15.90;;;9.40;99.90;;;;;;5051955;28;20053;-58
2022/12/25 14:05:03;;;;;;;29.80;16.48;;;9.50;99.90;;;;;;5039427;28;20158;-57
2022/12/25 14:07:30;;;;;;;27.67;16.50;;;9.40;99.90;;;;;;5041365;28;20076;-59
2022/12/25 14:09:58;;;;;;;28.92;16.23;;;9.40;99.90;;;;;;5046343;28;20053;-57
2022/12/25 14:12:25;;;;;;;26.95;17.20;;;9.40;99.90;;;;;;5039716;28;20128;-57
2022/12/25 14:14:52;;;;;;;33.63;17.60;;;9.40;99.90;;;;;;5048619;28;20084;-61
2022/12/25 14:17:19;;;;;;;31.33;17.45;;;9.40;99.90;;;;;;5051851;28;20459;-63
2022/12/25 14:19:55;;;;;;;36.10;18.40;;;9.40;99.90;;;;;;5053789;28;20088;-60
2022/12/25 14:22:21;;;;;;;32.17;18.50;;;9.40;99.90;;;;;;5053030;28;20175;-60
2022/12/25 14:24:48;;;;;;;28.35;18.77;;;9.40;99.90;;;;;;5048272;28;20096;-54